createdAt,value
2023-02-07T00:01:28.461Z,5.10
2023-02-07T00:03:56.716Z,3.90
2023-02-07T00:06:29.043Z,5.70
2023-02-07T00:08:56.388Z,4.40
2023-02-07T00:11:23.758Z,1.60
2023-02-07T00:13:54.999Z,3.00
2023-02-07T00:16:22.299Z,4.60
2023-02-07T00:18:49.471Z,2.80
2023-02-07T00:21:17.841Z,1.00
2023-02-07T00:23:44.989Z,1.00
2023-02-07T00:26:12.595Z,3.50
2023-02-07T00:28:41.570Z,3.60
2023-02-07T00:31:13.092Z,3.90
2023-02-07T00:33:40.917Z,6.80
2023-02-07T00:36:12.513Z,7.10
2023-02-07T00:38:39.776Z,6.20
2023-02-07T00:41:07.215Z,3.90
2023-02-07T00:43:34.224Z,3.90
2023-02-07T00:46:02.521Z,4.00
2023-02-07T00:48:30.081Z,4.00
2023-02-07T00:50:57.437Z,4.60
2023-02-07T00:53:24.968Z,8.60
2023-02-07T00:55:52.673Z,7.70
2023-02-07T00:58:19.781Z,6.60
2023-02-07T01:00:46.858Z,5.40
2023-02-07T01:03:13.896Z,5.60
2023-02-07T01:05:40.942Z,3.70
2023-02-07T01:08:07.889Z,2.50
2023-02-07T01:10:35.580Z,5.80
2023-02-07T01:13:02.523Z,6.50
2023-02-07T01:15:29.525Z,5.40
2023-02-07T01:17:59.056Z,6.50
2023-02-07T01:20:26.000Z,6.90
2023-02-07T01:22:54.464Z,5.60
2023-02-07T01:25:21.632Z,7.00
2023-02-07T01:27:48.685Z,8.30
2023-02-07T01:30:15.714Z,7.30
2023-02-07T01:32:42.642Z,8.00
2023-02-07T01:35:09.661Z,9.40
2023-02-07T01:37:36.626Z,7.40
2023-02-07T01:40:03.607Z,8.60
2023-02-07T01:42:30.733Z,8.90
2023-02-07T01:45:19.808Z,7.30
2023-02-07T01:47:48.164Z,9.90
2023-02-07T01:50:15.095Z,8.20
2023-02-07T01:52:42.085Z,7.00
2023-02-07T01:55:15.283Z,9.10
2023-02-07T01:57:43.191Z,12.00
2023-02-07T02:00:10.899Z,13.10
2023-02-07T02:02:41.596Z,8.00
2023-02-07T02:05:08.872Z,12.50
2023-02-07T02:07:35.935Z,10.50
2023-02-07T02:10:02.988Z,7.80
2023-02-07T02:12:51.925Z,10.50
2023-02-07T02:15:43.462Z,16.00
2023-02-07T02:18:13.550Z,11.00
2023-02-07T02:21:12.977Z,12.70
2023-02-07T02:23:49.095Z,13.60
2023-02-07T02:26:16.016Z,19.60
2023-02-07T02:29:02.014Z,17.90
2023-02-07T02:32:07.582Z,16.00
2023-02-07T02:34:54.372Z,15.00
2023-02-07T02:37:35.170Z,12.50
2023-02-07T02:40:08.983Z,15.40
2023-02-07T02:42:50.566Z,16.90
2023-02-07T02:45:29.750Z,13.50
2023-02-07T02:47:56.772Z,14.40
2023-02-07T02:50:29.968Z,14.50
2023-02-07T02:52:57.069Z,17.20
2023-02-07T02:55:54.533Z,14.70
2023-02-07T02:58:45.612Z,16.20
2023-02-07T03:01:41.441Z,16.00
2023-02-07T03:04:26.902Z,13.60
2023-02-07T03:07:18.847Z,13.50
2023-02-07T03:09:51.512Z,15.70
2023-02-07T03:12:20.329Z,14.60
2023-02-07T03:15:06.049Z,17.90
2023-02-07T03:17:54.835Z,18.10
2023-02-07T03:20:27.327Z,17.60
2023-02-07T03:22:54.392Z,20.70
2023-02-07T03:25:21.479Z,27.40
2023-02-07T03:27:48.562Z,27.40
2023-02-07T03:30:17.037Z,28.50
2023-02-07T03:32:45.719Z,25.10
2023-02-07T03:35:32.985Z,20.90
2023-02-07T03:38:01.011Z,19.90
2023-02-07T03:40:29.658Z,23.70
2023-02-07T03:43:16.863Z,20.70
2023-02-07T03:45:43.966Z,24.60
2023-02-07T03:48:11.141Z,25.00
2023-02-07T03:50:38.264Z,62.50
2023-02-07T03:53:05.756Z,99.90
2023-02-07T03:55:32.752Z,99.90
2023-02-07T03:57:59.725Z,99.90
2023-02-07T04:00:26.822Z,99.90
2023-02-07T04:02:54.132Z,99.90
2023-02-07T04:05:21.139Z,99.90
2023-02-07T04:07:48.066Z,99.90
2023-02-07T04:10:15.246Z,99.90
2023-02-07T04:12:42.245Z,99.90
2023-02-07T04:15:09.972Z,99.90
2023-02-07T04:17:37.090Z,99.90
2023-02-07T04:20:05.449Z,99.90
2023-02-07T04:22:32.524Z,99.90
2023-02-07T04:24:59.506Z,99.90
2023-02-07T04:27:26.588Z,99.90
2023-02-07T04:29:53.544Z,99.90
2023-02-07T04:32:20.500Z,99.90
2023-02-07T04:34:47.437Z,99.90
2023-02-07T04:37:14.412Z,99.90
2023-02-07T04:39:41.301Z,99.90
2023-02-07T04:42:08.224Z,99.90
2023-02-07T04:44:35.193Z,99.90
2023-02-07T04:47:02.087Z,99.90
2023-02-07T04:49:32.395Z,99.90
2023-02-07T04:52:00.694Z,99.90
2023-02-07T04:54:27.632Z,99.90
2023-02-07T04:56:54.557Z,99.90
2023-02-07T04:59:21.459Z,99.90
2023-02-07T05:01:48.481Z,99.90
2023-02-07T05:04:15.523Z,99.90
2023-02-07T05:06:42.733Z,99.90
2023-02-07T05:09:09.657Z,99.90
2023-02-07T05:11:36.637Z,99.90
2023-02-07T05:14:03.553Z,99.90
2023-02-07T05:16:30.747Z,99.90
2023-02-07T05:18:57.754Z,99.90
2023-02-07T05:21:24.659Z,99.90
2023-02-07T05:23:51.626Z,99.90
2023-02-07T05:26:18.550Z,99.90
2023-02-07T05:28:45.901Z,99.90
2023-02-07T05:31:12.972Z,99.90
2023-02-07T05:33:40.090Z,99.90
2023-02-07T05:36:07.529Z,99.90
2023-02-07T05:38:34.628Z,99.90
2023-02-07T05:41:01.812Z,99.90
2023-02-07T05:43:28.747Z,99.90
2023-02-07T05:45:55.687Z,99.90
2023-02-07T05:48:22.619Z,99.90
2023-02-07T05:50:49.593Z,99.90
2023-02-07T05:53:16.484Z,99.90
2023-02-07T05:55:43.483Z,99.90
2023-02-07T05:58:10.416Z,99.90
2023-02-07T06:00:37.411Z,99.90
2023-02-07T06:03:04.397Z,99.90
2023-02-07T06:05:31.860Z,99.90
2023-02-07T06:07:58.978Z,99.90
2023-02-07T06:10:26.012Z,99.90
2023-02-07T06:12:53.122Z,99.90
2023-02-07T06:15:20.167Z,99.90
2023-02-07T06:17:47.420Z,99.90
2023-02-07T06:20:14.475Z,99.90
2023-02-07T06:22:41.616Z,99.90
2023-02-07T06:25:11.887Z,99.90
2023-02-07T06:27:42.042Z,99.90
2023-02-07T06:30:10.167Z,99.90
2023-02-07T06:32:37.083Z,99.90
2023-02-07T06:35:04.947Z,99.90
2023-02-07T06:37:31.880Z,99.90
2023-02-07T06:39:58.928Z,99.90
2023-02-07T06:42:25.905Z,99.90
2023-02-07T06:44:52.812Z,99.90
2023-02-07T06:47:20.861Z,99.90
2023-02-07T06:49:47.896Z,99.90
2023-02-07T06:52:14.869Z,99.90
2023-02-07T06:54:41.971Z,99.90
2023-02-07T06:57:08.977Z,99.90
2023-02-07T06:59:36.026Z,99.90
2023-02-07T07:02:03.784Z,99.90
2023-02-07T07:04:31.042Z,99.90
2023-02-07T07:06:58.138Z,99.90
2023-02-07T07:09:25.147Z,99.90
2023-02-07T07:11:52.189Z,99.90
2023-02-07T07:14:19.404Z,99.90
2023-02-07T07:16:46.500Z,99.90
2023-02-07T07:19:13.524Z,99.90
2023-02-07T07:21:43.520Z,99.90
2023-02-07T07:24:10.472Z,99.90
2023-02-07T07:26:48.947Z,99.90
2023-02-07T07:29:20.133Z,99.90
2023-02-07T07:31:47.325Z,99.90
2023-02-07T07:34:14.463Z,99.90
2023-02-07T07:36:41.442Z,99.90
2023-02-07T07:39:09.136Z,99.90
2023-02-07T07:41:36.154Z,99.90
2023-02-07T07:44:03.334Z,99.90
2023-02-07T07:46:30.382Z,99.90
2023-02-07T07:48:57.411Z,99.90
2023-02-07T07:51:24.331Z,99.90
2023-02-07T07:53:51.279Z,99.90
2023-02-07T07:56:18.209Z,99.90
2023-02-07T07:58:45.170Z,99.90
2023-02-07T08:01:12.137Z,99.90
2023-02-07T08:03:39.256Z,99.90
2023-02-07T08:06:06.613Z,99.90
2023-02-07T08:08:33.845Z,99.90
2023-02-07T08:11:05.118Z,99.90
2023-02-07T08:13:33.070Z,99.90
2023-02-07T08:16:00.853Z,99.90
2023-02-07T08:18:27.977Z,99.90
2023-02-07T08:20:55.517Z,99.90
2023-02-07T08:23:22.966Z,99.90
2023-02-07T08:25:50.313Z,99.90
2023-02-07T08:28:17.725Z,99.90
2023-02-07T08:30:47.650Z,99.90
2023-02-07T08:33:15.722Z,99.90
2023-02-07T08:35:42.886Z,99.90
2023-02-07T08:38:09.980Z,99.90
2023-02-07T08:40:38.761Z,99.90
2023-02-07T08:43:12.415Z,99.90
2023-02-07T08:45:40.711Z,99.90
2023-02-07T08:48:08.484Z,99.90
2023-02-07T08:50:39.727Z,99.90
2023-02-07T08:53:07.825Z,99.90
2023-02-07T08:55:35.702Z,99.90
2023-02-07T08:58:03.022Z,99.90
2023-02-07T09:00:31.086Z,99.90
2023-02-07T09:02:58.593Z,99.90
2023-02-07T09:05:26.783Z,99.90
2023-02-07T09:07:54.436Z,99.90
2023-02-07T09:10:21.570Z,99.90
2023-02-07T09:12:48.637Z,99.90
2023-02-07T09:15:15.923Z,99.90
2023-02-07T09:17:46.135Z,99.90
2023-02-07T09:20:14.887Z,99.90
2023-02-07T09:23:01.128Z,99.90
2023-02-07T09:25:28.533Z,99.90
2023-02-07T09:27:56.058Z,99.90
2023-02-07T09:30:23.052Z,99.90
2023-02-07T09:32:50.140Z,99.90
2023-02-07T09:35:17.324Z,99.90
2023-02-07T09:37:49.752Z,99.90
2023-02-07T09:40:19.208Z,99.90
2023-02-07T09:42:49.020Z,99.90
2023-02-07T09:45:20.758Z,99.90
2023-02-07T09:47:50.595Z,99.90
2023-02-07T09:50:21.718Z,99.90
2023-02-07T09:53:15.058Z,99.90
2023-02-07T09:55:53.617Z,99.90
2023-02-07T09:58:48.571Z,99.90
2023-02-07T10:01:25.479Z,99.90
2023-02-07T10:04:02.126Z,99.90
2023-02-07T10:06:29.119Z,99.90
2023-02-07T10:08:59.522Z,99.90
2023-02-07T10:12:12.787Z,99.90
2023-02-07T10:14:48.529Z,99.90
2023-02-07T10:17:34.761Z,99.90
2023-02-07T10:20:01.803Z,99.90
2023-02-07T10:22:49.255Z,99.90
2023-02-07T10:25:36.795Z,99.90
2023-02-07T10:28:33.776Z,99.90
2023-02-07T10:31:02.422Z,99.90
2023-02-07T10:33:31.882Z,99.90
2023-02-07T10:35:58.977Z,99.90
2023-02-07T10:38:33.296Z,99.90
2023-02-07T10:41:15.333Z,99.90
2023-02-07T10:43:43.364Z,99.90
2023-02-07T10:46:10.916Z,99.90
2023-02-07T10:48:38.266Z,99.90
2023-02-07T10:51:12.937Z,99.90
2023-02-07T10:53:55.078Z,99.90
2023-02-07T10:56:27.187Z,99.90
2023-02-07T10:58:55.601Z,99.90
2023-02-07T11:01:24.296Z,99.90
2023-02-07T11:03:51.418Z,99.90
2023-02-07T11:06:32.223Z,99.90
2023-02-07T11:09:20.556Z,99.90
2023-02-07T11:11:50.837Z,99.90
2023-02-07T11:14:26.637Z,99.50
2023-02-07T11:16:55.006Z,85.30
2023-02-07T11:19:26.749Z,87.50
2023-02-07T11:22:07.519Z,92.10
2023-02-07T11:24:37.715Z,90.90
2023-02-07T11:27:12.977Z,90.20
2023-02-07T11:29:50.187Z,88.40
2023-02-07T11:32:17.153Z,86.10
2023-02-07T11:34:58.326Z,88.20
2023-02-07T11:37:27.506Z,88.20
2023-02-07T11:40:16.132Z,83.40
2023-02-07T11:42:43.032Z,76.20
2023-02-07T11:45:18.070Z,59.70
2023-02-07T11:47:48.529Z,53.80
2023-02-07T11:50:43.741Z,54.30
2023-02-07T11:53:36.806Z,53.00
2023-02-07T11:56:04.149Z,48.40
2023-02-07T11:58:35.564Z,43.70
2023-02-07T12:01:04.192Z,42.20
2023-02-07T12:03:40.998Z,35.50
2023-02-07T12:06:08.666Z,34.70
2023-02-07T12:08:35.877Z,34.10
2023-02-07T12:11:19.566Z,29.50
2023-02-07T12:13:49.393Z,27.10
2023-02-07T12:16:29.322Z,21.90
2023-02-07T12:19:00.715Z,19.80
2023-02-07T12:21:52.558Z,21.40
2023-02-07T12:24:34.698Z,25.00
2023-02-07T12:27:19.963Z,20.70
2023-02-07T12:29:59.951Z,17.30
2023-02-07T12:32:50.613Z,15.80
2023-02-07T12:35:30.308Z,19.40
2023-02-07T12:38:03.204Z,15.20
2023-02-07T12:40:46.764Z,15.40
2023-02-07T12:43:31.811Z,14.50
2023-02-07T12:46:02.211Z,11.90
2023-02-07T12:48:59.458Z,8.80
2023-02-07T12:52:07.744Z,9.00
2023-02-07T12:54:50.539Z,9.50
2023-02-07T12:57:34.219Z,7.00
2023-02-07T13:00:19.708Z,4.20
2023-02-07T13:02:49.682Z,1.00
2023-02-07T13:05:28.542Z,1.00
2023-02-07T13:07:58.901Z,1.00
2023-02-07T13:10:25.835Z,1.00
2023-02-07T13:13:01.023Z,1.00
2023-02-07T13:15:38.049Z,1.00
2023-02-07T13:18:24.454Z,1.00
2023-02-07T13:21:18.095Z,1.00
2023-02-07T13:23:46.139Z,1.00
2023-02-07T13:26:20.151Z,1.00
2023-02-07T13:28:55.362Z,1.00
2023-02-07T13:31:38.966Z,1.00
2023-02-07T13:34:09.029Z,1.00
2023-02-07T13:36:37.155Z,1.00
2023-02-07T13:39:23.020Z,1.00
2023-02-07T13:41:54.211Z,1.00
2023-02-07T13:44:30.302Z,1.00
2023-02-07T13:46:57.256Z,1.00
2023-02-07T13:49:30.514Z,1.00
2023-02-07T13:52:21.785Z,1.00
2023-02-07T13:54:58.692Z,1.00
2023-02-07T13:57:53.141Z,1.00
2023-02-07T14:00:25.297Z,1.00
2023-02-07T14:02:54.002Z,1.00
2023-02-07T14:05:29.794Z,1.00
2023-02-07T14:08:23.508Z,1.00
2023-02-07T14:10:56.767Z,1.00
2023-02-07T14:13:26.918Z,1.00
2023-02-07T14:16:01.223Z,1.00
2023-02-07T14:18:48.293Z,1.00
2023-02-07T14:21:21.742Z,1.00
2023-02-07T14:24:05.848Z,1.00
2023-02-07T14:26:42.912Z,1.00
2023-02-07T14:29:25.584Z,1.00
2023-02-07T14:31:57.047Z,1.00
2023-02-07T14:34:25.485Z,1.00
2023-02-07T14:36:55.738Z,1.00
2023-02-07T14:39:29.986Z,1.00
2023-02-07T14:42:12.197Z,1.00
2023-02-07T14:44:40.233Z,1.00
2023-02-07T14:47:08.074Z,1.00
2023-02-07T14:49:39.322Z,1.00
2023-02-07T14:52:12.274Z,1.00
2023-02-07T14:54:48.088Z,1.00
2023-02-07T14:57:33.673Z,1.00
2023-02-07T15:00:04.975Z,1.00
2023-02-07T15:02:35.989Z,1.00
2023-02-07T15:05:27.881Z,1.00
2023-02-07T15:08:03.984Z,1.00
2023-02-07T15:10:36.766Z,1.00
2023-02-07T15:13:05.576Z,1.00
2023-02-07T15:15:52.732Z,1.00
2023-02-07T15:18:20.384Z,1.00
2023-02-07T15:20:57.480Z,1.00
2023-02-07T15:23:26.802Z,1.00
2023-02-07T15:25:54.178Z,1.00
2023-02-07T15:28:29.538Z,1.00
2023-02-07T15:31:06.244Z,1.00
2023-02-07T15:33:38.251Z,1.00
2023-02-07T15:36:07.273Z,1.00
2023-02-07T15:38:34.615Z,1.00
2023-02-07T15:41:04.298Z,1.00
2023-02-07T15:43:33.127Z,1.00
2023-02-07T15:46:00.365Z,1.00
2023-02-07T15:48:32.691Z,1.00
2023-02-07T15:51:02.271Z,1.00
2023-02-07T15:53:29.665Z,1.00
2023-02-07T15:55:56.702Z,1.00
2023-02-07T15:58:29.105Z,1.00
2023-02-07T16:01:01.661Z,1.00
2023-02-07T16:03:30.836Z,1.00
2023-02-07T16:06:02.443Z,1.00
2023-02-07T16:08:40.684Z,1.00
2023-02-07T16:11:32.512Z,1.00
2023-02-07T16:14:25.501Z,1.00
2023-02-07T16:16:54.015Z,1.00
2023-02-07T16:19:28.200Z,1.00
2023-02-07T16:22:01.681Z,1.00
2023-02-07T16:24:29.011Z,1.00
2023-02-07T16:26:57.181Z,1.00
2023-02-07T16:29:24.933Z,1.00
2023-02-07T16:31:52.691Z,1.00
2023-02-07T16:34:20.106Z,1.00
2023-02-07T16:36:49.614Z,1.00
2023-02-07T16:39:16.642Z,1.00
2023-02-07T16:41:54.825Z,1.00
2023-02-07T16:44:25.926Z,1.00
2023-02-07T16:46:53.079Z,1.00
2023-02-07T16:49:24.333Z,1.00
2023-02-07T16:51:51.649Z,1.00
2023-02-07T16:54:18.756Z,1.00
2023-02-07T16:56:46.940Z,1.00
2023-02-07T16:59:21.750Z,1.00
2023-02-07T17:01:49.737Z,1.00
2023-02-07T17:04:17.719Z,1.00
2023-02-07T17:06:44.836Z,1.00
2023-02-07T17:09:25.044Z,1.00
2023-02-07T17:11:53.364Z,1.00
2023-02-07T17:14:22.503Z,1.00
2023-02-07T17:16:50.140Z,1.00
2023-02-07T17:19:29.781Z,1.00
2023-02-07T17:21:57.098Z,1.00
2023-02-07T17:24:24.217Z,2.30
2023-02-07T17:26:53.017Z,2.90
2023-02-07T17:29:20.156Z,1.00
2023-02-07T17:31:48.029Z,1.40
2023-02-07T17:34:15.983Z,1.00
2023-02-07T17:36:48.231Z,2.70
2023-02-07T17:39:15.791Z,7.90
2023-02-07T17:41:43.049Z,3.80
2023-02-07T17:44:10.711Z,4.00
2023-02-07T17:46:38.183Z,4.30
2023-02-07T17:49:06.316Z,4.00
2023-02-07T17:51:33.351Z,7.00
2023-02-07T17:54:00.668Z,6.70
2023-02-07T17:56:29.682Z,7.60
2023-02-07T17:58:59.207Z,13.20
2023-02-07T18:01:26.247Z,20.30
2023-02-07T18:03:54.064Z,23.30
2023-02-07T18:06:26.082Z,22.20
2023-02-07T18:08:55.001Z,21.70
2023-02-07T18:11:23.272Z,15.30
2023-02-07T18:13:50.653Z,12.20
2023-02-07T18:16:23.367Z,13.90
2023-02-07T18:18:51.127Z,19.00
2023-02-07T18:21:18.264Z,20.80
2023-02-07T18:23:45.475Z,23.90
2023-02-07T18:26:15.114Z,19.50
2023-02-07T18:28:48.020Z,23.80
2023-02-07T18:31:20.467Z,22.70
2023-02-07T18:33:48.019Z,24.80
2023-02-07T18:36:15.078Z,25.00
2023-02-07T18:38:42.196Z,24.90
2023-02-07T18:41:13.787Z,27.20
2023-02-07T18:43:41.034Z,33.30
2023-02-07T18:46:13.063Z,34.30
2023-02-07T18:48:40.305Z,31.00
2023-02-07T18:51:08.432Z,24.90
2023-02-07T18:53:35.424Z,31.30
2023-02-07T18:56:15.783Z,38.40
2023-02-07T18:58:43.278Z,29.70
2023-02-07T19:01:13.143Z,30.00
2023-02-07T19:03:40.131Z,30.30
2023-02-07T19:06:07.555Z,29.70
2023-02-07T19:08:34.550Z,32.00
2023-02-07T19:11:05.606Z,33.60
2023-02-07T19:13:33.172Z,37.30
2023-02-07T19:16:04.221Z,47.20
2023-02-07T19:18:31.264Z,40.80
2023-02-07T19:21:12.822Z,45.20
2023-02-07T19:23:40.452Z,44.40
2023-02-07T19:26:07.537Z,45.20
2023-02-07T19:28:34.762Z,49.00
2023-02-07T19:31:09.229Z,43.90
2023-02-07T19:33:36.740Z,44.10
2023-02-07T19:36:08.307Z,37.50
2023-02-07T19:38:35.355Z,34.00
2023-02-07T19:41:02.361Z,37.80
2023-02-07T19:43:29.980Z,40.70
2023-02-07T19:45:57.136Z,36.40
2023-02-07T19:48:24.199Z,41.80
2023-02-07T19:51:01.430Z,39.20
2023-02-07T19:53:28.790Z,38.60
2023-02-07T19:56:02.126Z,41.60
2023-02-07T19:58:30.553Z,44.60
2023-02-07T20:00:57.783Z,41.50
2023-02-07T20:03:25.188Z,36.40
2023-02-07T20:05:53.077Z,36.50
2023-02-07T20:08:20.749Z,38.30
2023-02-07T20:10:48.156Z,37.70
2023-02-07T20:13:15.325Z,36.00
2023-02-07T20:15:43.110Z,36.30
2023-02-07T20:18:10.869Z,41.10
2023-02-07T20:20:42.294Z,45.70
2023-02-07T20:23:10.040Z,43.60
2023-02-07T20:25:37.760Z,45.20
2023-02-07T20:28:05.823Z,44.90
2023-02-07T20:30:33.145Z,42.30
2023-02-07T20:33:00.102Z,46.70
2023-02-07T20:35:27.124Z,46.80
2023-02-07T20:37:54.215Z,50.30
2023-02-07T20:40:21.402Z,48.10
2023-02-07T20:42:49.057Z,47.40
2023-02-07T20:45:16.219Z,42.20
2023-02-07T20:47:43.670Z,39.70
2023-02-07T20:50:10.929Z,32.40
2023-02-07T20:52:38.125Z,35.30
2023-02-07T20:55:05.866Z,39.60
2023-02-07T20:57:32.940Z,41.30
2023-02-07T21:00:00.038Z,33.70
2023-02-07T21:02:27.051Z,33.60
2023-02-07T21:04:54.057Z,39.20
2023-02-07T21:07:21.068Z,40.60
2023-02-07T21:09:48.088Z,40.40
2023-02-07T21:12:15.256Z,42.10
2023-02-07T21:14:42.367Z,45.20
2023-02-07T21:17:10.327Z,48.10
2023-02-07T21:19:37.480Z,47.30
2023-02-07T21:22:04.729Z,45.60
2023-02-07T21:24:31.926Z,57.80
2023-02-07T21:26:59.127Z,61.30
2023-02-07T21:29:27.958Z,58.90
2023-02-07T21:31:55.209Z,58.30
2023-02-07T21:34:22.389Z,48.40
2023-02-07T21:36:49.859Z,45.50
2023-02-07T21:39:17.072Z,47.20
2023-02-07T21:41:44.814Z,47.80
2023-02-07T21:44:12.204Z,50.90
2023-02-07T21:46:40.266Z,50.10
2023-02-07T21:49:17.006Z,50.60
2023-02-07T21:51:45.366Z,48.30
2023-02-07T21:54:12.393Z,49.40
2023-02-07T21:56:40.550Z,49.20
2023-02-07T21:59:10.556Z,45.20
2023-02-07T22:01:43.476Z,48.20
2023-02-07T22:04:20.265Z,45.30
2023-02-07T22:06:49.394Z,45.80
2023-02-07T22:09:17.672Z,48.90
2023-02-07T22:11:44.981Z,56.00
2023-02-07T22:14:12.677Z,53.80
2023-02-07T22:16:39.860Z,51.20
2023-02-07T22:19:07.823Z,50.40
2023-02-07T22:21:36.397Z,46.10
2023-02-07T22:24:04.070Z,49.20
2023-02-07T22:26:31.392Z,52.20
2023-02-07T22:28:59.157Z,55.90
2023-02-07T22:31:27.820Z,53.00
2023-02-07T22:33:55.583Z,52.90
2023-02-07T22:36:25.097Z,54.00
2023-02-07T22:38:52.360Z,53.20
2023-02-07T22:41:19.604Z,45.50
2023-02-07T22:43:46.632Z,50.40
2023-02-07T22:46:15.630Z,51.60
2023-02-07T22:48:42.775Z,53.20
2023-02-07T22:51:23.841Z,52.40
2023-02-07T22:53:52.812Z,49.80
2023-02-07T22:56:19.924Z,48.90
2023-02-07T22:58:47.198Z,42.50
2023-02-07T23:01:25.494Z,47.00
2023-02-07T23:03:52.539Z,45.50
2023-02-07T23:06:19.789Z,44.00
2023-02-07T23:08:46.894Z,40.40
2023-02-07T23:11:14.835Z,40.20
2023-02-07T23:13:42.287Z,36.60
2023-02-07T23:16:17.052Z,39.90
2023-02-07T23:18:44.114Z,47.80
2023-02-07T23:21:12.038Z,50.10
2023-02-07T23:23:39.112Z,50.10
2023-02-07T23:26:07.780Z,49.10
2023-02-07T23:28:34.881Z,48.00
2023-02-07T23:31:01.874Z,48.20
2023-02-07T23:33:28.806Z,50.00
2023-02-07T23:35:57.056Z,52.40
2023-02-07T23:38:23.979Z,56.80
2023-02-07T23:40:50.877Z,54.50
2023-02-07T23:43:17.909Z,57.30
2023-02-07T23:45:44.883Z,57.70
2023-02-07T23:48:11.797Z,56.20
2023-02-07T23:50:39.185Z,55.20
2023-02-07T23:53:06.484Z,53.50
2023-02-07T23:55:33.500Z,53.40
2023-02-07T23:58:00.584Z,55.80
